sensor_id;sensor_type;location;lat;lon;timestamp;P1;durP1;ratioP1;P2;durP2;ratioP2
53801;SDS011;39709;53.334;6.534;2022-09-20T00:00:18;13.23;;;0.98;;
53801;SDS011;39709;53.334;6.534;2022-09-20T00:02:44;10.25;;;0.65;;
53801;SDS011;39709;53.334;6.534;2022-09-20T00:05:10;14.67;;;0.97;;
53801;SDS011;39709;53.334;6.534;2022-09-20T00:07:35;10.38;;;0.80;;
53801;SDS011;39709;53.334;6.534;2022-09-20T00:10:01;7.40;;;1.00;;
53801;SDS011;39709;53.334;6.534;2022-09-20T00:12:28;10.93;;;1.38;;
53801;SDS011;39709;53.334;6.534;2022-09-20T00:14:53;11.77;;;1.10;;
53801;SDS011;39709;53.334;6.534;2022-09-20T00:17:19;12.50;;;1.15;;
53801;SDS011;39709;53.334;6.534;2022-09-20T00:19:45;12.83;;;0.90;;
53801;SDS011;39709;53.334;6.534;2022-09-20T00:22:10;12.45;;;1.25;;
53801;SDS011;39709;53.334;6.534;2022-09-20T00:24:36;11.17;;;0.97;;
53801;SDS011;39709;53.334;6.534;2022-09-20T00:27:02;15.88;;;1.40;;
53801;SDS011;39709;53.334;6.534;2022-09-20T00:29:28;14.57;;;0.80;;
53801;SDS011;39709;53.334;6.534;2022-09-20T00:31:54;10.43;;;1.10;;
53801;SDS011;39709;53.334;6.534;2022-09-20T00:34:19;14.17;;;1.00;;
53801;SDS011;39709;53.334;6.534;2022-09-20T00:37:03;9.57;;;1.00;;
53801;SDS011;39709;53.334;6.534;2022-09-20T00:39:29;9.07;;;1.10;;
53801;SDS011;39709;53.334;6.534;2022-09-20T00:41:55;11.37;;;0.80;;
53801;SDS011;39709;53.334;6.534;2022-09-20T00:47:31;12.50;;;0.87;;
53801;SDS011;39709;53.334;6.534;2022-09-20T00:50:13;13.45;;;0.90;;
53801;SDS011;39709;53.334;6.534;2022-09-20T00:53:09;8.93;;;0.75;;
53801;SDS011;39709;53.334;6.534;2022-09-20T00:56:15;11.93;;;1.17;;
53801;SDS011;39709;53.334;6.534;2022-09-20T00:58:45;10.25;;;0.77;;
53801;SDS011;39709;53.334;6.534;2022-09-20T01:01:18;12.13;;;1.33;;
53801;SDS011;39709;53.334;6.534;2022-09-20T01:03:44;13.80;;;1.10;;
53801;SDS011;39709;53.334;6.534;2022-09-20T01:06:12;15.00;;;1.00;;
53801;SDS011;39709;53.334;6.534;2022-09-20T01:08:41;14.07;;;1.08;;
53801;SDS011;39709;53.334;6.534;2022-09-20T01:11:11;11.50;;;1.05;;
53801;SDS011;39709;53.334;6.534;2022-09-20T01:13:37;8.77;;;0.80;;
53801;SDS011;39709;53.334;6.534;2022-09-20T01:16:03;9.03;;;1.00;;
53801;SDS011;39709;53.334;6.534;2022-09-20T01:18:30;7.22;;;0.70;;
53801;SDS011;39709;53.334;6.534;2022-09-20T01:20:57;12.77;;;1.20;;
53801;SDS011;39709;53.334;6.534;2022-09-20T01:23:27;11.32;;;1.35;;
53801;SDS011;39709;53.334;6.534;2022-09-20T01:28:45;10.80;;;1.23;;
53801;SDS011;39709;53.334;6.534;2022-09-20T01:33:49;14.00;;;1.00;;
53801;SDS011;39709;53.334;6.534;2022-09-20T01:41:44;10.80;;;1.00;;
53801;SDS011;39709;53.334;6.534;2022-09-20T01:44:29;9.40;;;1.55;;
53801;SDS011;39709;53.334;6.534;2022-09-20T02:13:03;12.15;;;1.23;;
53801;SDS011;39709;53.334;6.534;2022-09-20T02:18:45;12.15;;;0.90;;
53801;SDS011;39709;53.334;6.534;2022-09-20T02:34:45;11.95;;;1.75;;
53801;SDS011;39709;53.334;6.534;2022-09-20T02:45:35;9.88;;;1.10;;
53801;SDS011;39709;53.334;6.534;2022-09-20T02:51:27;8.83;;;0.90;;
53801;SDS011;39709;53.334;6.534;2022-09-20T02:59:31;6.70;;;0.70;;
53801;SDS011;39709;53.334;6.534;2022-09-20T03:02:18;10.38;;;0.93;;
53801;SDS011;39709;53.334;6.534;2022-09-20T03:26:50;12.43;;;1.20;;
53801;SDS011;39709;53.334;6.534;2022-09-20T03:39:59;9.57;;;1.25;;
53801;SDS011;39709;53.334;6.534;2022-09-20T03:42:27;9.18;;;1.20;;
53801;SDS011;39709;53.334;6.534;2022-09-20T04:04:18;6.63;;;1.25;;
53801;SDS011;39709;53.334;6.534;2022-09-20T04:09:42;12.25;;;1.73;;
53801;SDS011;39709;53.334;6.534;2022-09-20T04:20:54;11.63;;;1.20;;
53801;SDS011;39709;53.334;6.534;2022-09-20T04:23:30;6.78;;;1.00;;
53801;SDS011;39709;53.334;6.534;2022-09-20T04:26:19;12.23;;;1.60;;
53801;SDS011;39709;53.334;6.534;2022-09-20T04:28:52;9.38;;;0.90;;
53801;SDS011;39709;53.334;6.534;2022-09-20T04:34:07;9.60;;;1.20;;
53801;SDS011;39709;53.334;6.534;2022-09-20T05:18:58;9.48;;;1.20;;
53801;SDS011;39709;53.334;6.534;2022-09-20T05:21:36;10.57;;;2.20;;
53801;SDS011;39709;53.334;6.534;2022-09-20T05:24:30;9.68;;;2.13;;
53801;SDS011;39709;53.334;6.534;2022-09-20T05:36:04;12.07;;;2.40;;
53801;SDS011;39709;53.334;6.534;2022-09-20T05:39:28;8.45;;;1.80;;
53801;SDS011;39709;53.334;6.534;2022-09-20T05:45:01;6.68;;;1.35;;
53801;SDS011;39709;53.334;6.534;2022-09-20T05:47:58;9.15;;;1.20;;
53801;SDS011;39709;53.334;6.534;2022-09-20T05:59:05;9.48;;;1.23;;
53801;SDS011;39709;53.334;6.534;2022-09-20T06:01:40;7.82;;;0.77;;
53801;SDS011;39709;53.334;6.534;2022-09-20T06:04:23;12.93;;;1.10;;
53801;SDS011;39709;53.334;6.534;2022-09-20T06:07:05;8.23;;;0.85;;
53801;SDS011;39709;53.334;6.534;2022-09-20T06:09:44;9.93;;;0.90;;
53801;SDS011;39709;53.334;6.534;2022-09-20T06:15:34;9.70;;;0.85;;
53801;SDS011;39709;53.334;6.534;2022-09-20T06:18:24;5.83;;;0.70;;
53801;SDS011;39709;53.334;6.534;2022-09-20T06:23:39;9.07;;;0.80;;
53801;SDS011;39709;53.334;6.534;2022-09-20T06:26:15;9.82;;;0.50;;
53801;SDS011;39709;53.334;6.534;2022-09-20T06:28:48;6.73;;;0.50;;
53801;SDS011;39709;53.334;6.534;2022-09-20T06:31:19;7.35;;;0.57;;
53801;SDS011;39709;53.334;6.534;2022-09-20T06:36:31;9.73;;;0.70;;
53801;SDS011;39709;53.334;6.534;2022-09-20T06:42:07;8.80;;;1.20;;
53801;SDS011;39709;53.334;6.534;2022-09-20T06:44:34;11.20;;;3.80;;
53801;SDS011;39709;53.334;6.534;2022-09-20T06:47:14;13.05;;;4.10;;
53801;SDS011;39709;53.334;6.534;2022-09-20T06:49:40;12.32;;;6.80;;
53801;SDS011;39709;53.334;6.534;2022-09-20T06:52:14;12.50;;;5.72;;
53801;SDS011;39709;53.334;6.534;2022-09-20T06:54:45;14.03;;;2.20;;
53801;SDS011;39709;53.334;6.534;2022-09-20T06:57:13;9.98;;;1.02;;
53801;SDS011;39709;53.334;6.534;2022-09-20T06:59:42;8.27;;;1.00;;
53801;SDS011;39709;53.334;6.534;2022-09-20T07:02:08;8.90;;;1.02;;
53801;SDS011;39709;53.334;6.534;2022-09-20T07:04:35;10.13;;;1.10;;
53801;SDS011;39709;53.334;6.534;2022-09-20T07:07:01;5.80;;;0.70;;
53801;SDS011;39709;53.334;6.534;2022-09-20T07:09:31;4.13;;;0.50;;
53801;SDS011;39709;53.334;6.534;2022-09-20T07:11:57;7.38;;;0.60;;
53801;SDS011;39709;53.334;6.534;2022-09-20T07:14:26;6.45;;;0.60;;
53801;SDS011;39709;53.334;6.534;2022-09-20T07:16:52;11.65;;;0.70;;
53801;SDS011;39709;53.334;6.534;2022-09-20T07:19:18;5.57;;;0.40;;
53801;SDS011;39709;53.334;6.534;2022-09-20T07:21:44;6.18;;;0.55;;
53801;SDS011;39709;53.334;6.534;2022-09-20T07:24:10;8.93;;;0.77;;
53801;SDS011;39709;53.334;6.534;2022-09-20T07:26:39;9.10;;;0.77;;
53801;SDS011;39709;53.334;6.534;2022-09-20T07:29:18;16.13;;;0.80;;
53801;SDS011;39709;53.334;6.534;2022-09-20T07:31:44;10.25;;;0.65;;
53801;SDS011;39709;53.334;6.534;2022-09-20T07:34:09;9.07;;;0.83;;
53801;SDS011;39709;53.334;6.534;2022-09-20T07:36:35;7.43;;;0.68;;
53801;SDS011;39709;53.334;6.534;2022-09-20T07:39:01;8.90;;;0.60;;
53801;SDS011;39709;53.334;6.534;2022-09-20T07:41:27;15.90;;;0.90;;
53801;SDS011;39709;53.334;6.534;2022-09-20T07:43:55;8.77;;;0.60;;
53801;SDS011;39709;53.334;6.534;2022-09-20T07:46:41;7.37;;;0.63;;
53801;SDS011;39709;53.334;6.534;2022-09-20T07:49:07;6.82;;;0.70;;
53801;SDS011;39709;53.334;6.534;2022-09-20T07:51:33;5.47;;;0.52;;
53801;SDS011;39709;53.334;6.534;2022-09-20T07:53:58;10.30;;;0.60;;
53801;SDS011;39709;53.334;6.534;2022-09-20T07:56:24;5.43;;;0.50;;
53801;SDS011;39709;53.334;6.534;2022-09-20T07:58:50;7.67;;;0.60;;
53801;SDS011;39709;53.334;6.534;2022-09-20T08:01:15;8.02;;;0.60;;
53801;SDS011;39709;53.334;6.534;2022-09-20T08:03:41;7.50;;;0.67;;
53801;SDS011;39709;53.334;6.534;2022-09-20T08:06:08;4.90;;;0.50;;
53801;SDS011;39709;53.334;6.534;2022-09-20T08:08:36;6.82;;;0.60;;
53801;SDS011;39709;53.334;6.534;2022-09-20T08:11:07;6.35;;;0.40;;
53801;SDS011;39709;53.334;6.534;2022-09-20T08:13:47;7.72;;;0.60;;
53801;SDS011;39709;53.334;6.534;2022-09-20T08:16:14;5.75;;;0.60;;
53801;SDS011;39709;53.334;6.534;2022-09-20T08:18:44;3.70;;;0.50;;
53801;SDS011;39709;53.334;6.534;2022-09-20T08:21:25;8.43;;;0.63;;
53801;SDS011;39709;53.334;6.534;2022-09-20T08:23:58;6.95;;;0.60;;
53801;SDS011;39709;53.334;6.534;2022-09-20T08:26:25;8.32;;;1.00;;
53801;SDS011;39709;53.334;6.534;2022-09-20T08:28:52;3.85;;;0.43;;
53801;SDS011;39709;53.334;6.534;2022-09-20T08:31:21;7.07;;;0.50;;
53801;SDS011;39709;53.334;6.534;2022-09-20T08:33:49;8.18;;;0.45;;
53801;SDS011;39709;53.334;6.534;2022-09-20T08:36:17;4.93;;;0.40;;
53801;SDS011;39709;53.334;6.534;2022-09-20T08:38:45;6.00;;;0.50;;
53801;SDS011;39709;53.334;6.534;2022-09-20T08:44:14;4.87;;;0.30;;
53801;SDS011;39709;53.334;6.534;2022-09-20T08:46:49;5.93;;;0.40;;
53801;SDS011;39709;53.334;6.534;2022-09-20T08:49:26;3.67;;;0.30;;
53801;SDS011;39709;53.334;6.534;2022-09-20T08:51:53;5.93;;;0.60;;
53801;SDS011;39709;53.334;6.534;2022-09-20T08:54:22;4.45;;;0.40;;
53801;SDS011;39709;53.334;6.534;2022-09-20T08:56:54;2.97;;;0.40;;
53801;SDS011;39709;53.334;6.534;2022-09-20T08:59:20;7.25;;;0.40;;
53801;SDS011;39709;53.334;6.534;2022-09-20T09:01:47;6.57;;;0.50;;
53801;SDS011;39709;53.334;6.534;2022-09-20T09:04:23;6.72;;;0.80;;
53801;SDS011;39709;53.334;6.534;2022-09-20T09:06:56;6.37;;;0.50;;
53801;SDS011;39709;53.334;6.534;2022-09-20T09:09:23;6.07;;;0.50;;
53801;SDS011;39709;53.334;6.534;2022-09-20T09:11:52;5.95;;;0.60;;
53801;SDS011;39709;53.334;6.534;2022-09-20T09:17:09;7.05;;;0.93;;
53801;SDS011;39709;53.334;6.534;2022-09-20T09:19:46;5.67;;;0.70;;
53801;SDS011;39709;53.334;6.534;2022-09-20T09:22:23;5.80;;;0.70;;
53801;SDS011;39709;53.334;6.534;2022-09-20T09:27:54;5.05;;;0.50;;
53801;SDS011;39709;53.334;6.534;2022-09-20T09:30:29;3.00;;;0.30;;
53801;SDS011;39709;53.334;6.534;2022-09-20T09:35:40;2.20;;;0.40;;
53801;SDS011;39709;53.334;6.534;2022-09-20T09:38:14;9.73;;;0.50;;
53801;SDS011;39709;53.334;6.534;2022-09-20T09:40:51;4.65;;;0.43;;
53801;SDS011;39709;53.334;6.534;2022-09-20T09:43:27;6.53;;;0.50;;
53801;SDS011;39709;53.334;6.534;2022-09-20T09:46:14;8.63;;;0.50;;
53801;SDS011;39709;53.334;6.534;2022-09-20T09:48:42;8.48;;;0.70;;
53801;SDS011;39709;53.334;6.534;2022-09-20T09:51:18;4.90;;;0.40;;
53801;SDS011;39709;53.334;6.534;2022-09-20T09:53:45;4.47;;;0.85;;
53801;SDS011;39709;53.334;6.534;2022-09-20T09:56:35;7.05;;;0.80;;
53801;SDS011;39709;53.334;6.534;2022-09-20T09:59:40;7.13;;;0.80;;
53801;SDS011;39709;53.334;6.534;2022-09-20T10:10:59;7.40;;;0.55;;
53801;SDS011;39709;53.334;6.534;2022-09-20T10:13:45;11.27;;;1.00;;
53801;SDS011;39709;53.334;6.534;2022-09-20T10:30:28;5.72;;;0.57;;
53801;SDS011;39709;53.334;6.534;2022-09-20T10:33:24;10.95;;;0.80;;
53801;SDS011;39709;53.334;6.534;2022-09-20T10:38:29;7.43;;;0.88;;
53801;SDS011;39709;53.334;6.534;2022-09-20T10:47:20;5.03;;;0.60;;
53801;SDS011;39709;53.334;6.534;2022-09-20T10:55:40;7.27;;;0.60;;
53801;SDS011;39709;53.334;6.534;2022-09-20T10:58:38;6.75;;;0.60;;
53801;SDS011;39709;53.334;6.534;2022-09-20T11:01:30;4.95;;;0.50;;
53801;SDS011;39709;53.334;6.534;2022-09-20T11:04:06;6.78;;;0.40;;
53801;SDS011;39709;53.334;6.534;2022-09-20T11:09:43;4.63;;;0.50;;
53801;SDS011;39709;53.334;6.534;2022-09-20T11:15:02;8.02;;;0.77;;
53801;SDS011;39709;53.334;6.534;2022-09-20T11:17:37;7.82;;;0.50;;
53801;SDS011;39709;53.334;6.534;2022-09-20T11:20:19;7.72;;;0.60;;
53801;SDS011;39709;53.334;6.534;2022-09-20T11:23:00;6.87;;;0.60;;
53801;SDS011;39709;53.334;6.534;2022-09-20T11:25:51;9.25;;;0.57;;
53801;SDS011;39709;53.334;6.534;2022-09-20T11:31:00;9.13;;;0.68;;
53801;SDS011;39709;53.334;6.534;2022-09-20T11:33:45;5.80;;;0.40;;
53801;SDS011;39709;53.334;6.534;2022-09-20T11:36:31;8.53;;;0.73;;
53801;SDS011;39709;53.334;6.534;2022-09-20T11:39:24;7.25;;;0.60;;
53801;SDS011;39709;53.334;6.534;2022-09-20T11:41:58;8.75;;;0.65;;
53801;SDS011;39709;53.334;6.534;2022-09-20T11:44:26;9.00;;;0.60;;
53801;SDS011;39709;53.334;6.534;2022-09-20T11:46:59;8.38;;;0.80;;
53801;SDS011;39709;53.334;6.534;2022-09-20T11:49:36;8.83;;;0.60;;
53801;SDS011;39709;53.334;6.534;2022-09-20T11:57:42;4.78;;;0.70;;
53801;SDS011;39709;53.334;6.534;2022-09-20T12:00:09;5.32;;;0.60;;
53801;SDS011;39709;53.334;6.534;2022-09-20T12:05:05;6.05;;;0.50;;
53801;SDS011;39709;53.334;6.534;2022-09-20T12:07:46;6.28;;;0.68;;
53801;SDS011;39709;53.334;6.534;2022-09-20T12:12:45;6.53;;;0.60;;
53801;SDS011;39709;53.334;6.534;2022-09-20T12:15:35;5.85;;;0.60;;
53801;SDS011;39709;53.334;6.534;2022-09-20T12:26:07;5.20;;;0.75;;
53801;SDS011;39709;53.334;6.534;2022-09-20T12:36:35;6.47;;;0.60;;
53801;SDS011;39709;53.334;6.534;2022-09-20T12:52:35;5.72;;;0.60;;
53801;SDS011;39709;53.334;6.534;2022-09-20T13:11:33;6.10;;;0.70;;
53801;SDS011;39709;53.334;6.534;2022-09-20T13:14:22;7.05;;;0.85;;
53801;SDS011;39709;53.334;6.534;2022-09-20T13:16:52;7.80;;;0.50;;
53801;SDS011;39709;53.334;6.534;2022-09-20T13:19:29;5.50;;;0.40;;
53801;SDS011;39709;53.334;6.534;2022-09-20T13:24:24;6.53;;;0.63;;
53801;SDS011;39709;53.334;6.534;2022-09-20T13:27:07;6.22;;;0.70;;
53801;SDS011;39709;53.334;6.534;2022-09-20T13:29:41;6.82;;;0.55;;
53801;SDS011;39709;53.334;6.534;2022-09-20T13:37:34;4.07;;;0.50;;
53801;SDS011;39709;53.334;6.534;2022-09-20T13:40:02;4.90;;;0.40;;
53801;SDS011;39709;53.334;6.534;2022-09-20T13:42:30;3.35;;;0.40;;
53801;SDS011;39709;53.334;6.534;2022-09-20T13:44:59;3.90;;;0.30;;
53801;SDS011;39709;53.334;6.534;2022-09-20T13:47:29;7.13;;;0.75;;
53801;SDS011;39709;53.334;6.534;2022-09-20T13:50:38;4.40;;;0.40;;
53801;SDS011;39709;53.334;6.534;2022-09-20T13:52:57;10.02;;;1.55;;
53801;SDS011;39709;53.334;6.534;2022-09-20T13:55:32;7.07;;;0.60;;
53801;SDS011;39709;53.334;6.534;2022-09-20T13:58:06;2.47;;;0.35;;
53801;SDS011;39709;53.334;6.534;2022-09-20T14:00:44;7.07;;;0.68;;
53801;SDS011;39709;53.334;6.534;2022-09-20T14:03:15;6.10;;;0.50;;
53801;SDS011;39709;53.334;6.534;2022-09-20T14:05:45;7.53;;;0.70;;
53801;SDS011;39709;53.334;6.534;2022-09-20T14:08:34;5.70;;;0.60;;
53801;SDS011;39709;53.334;6.534;2022-09-20T14:11:09;7.68;;;1.00;;
53801;SDS011;39709;53.334;6.534;2022-09-20T14:13:37;8.65;;;0.60;;
53801;SDS011;39709;53.334;6.534;2022-09-20T14:16:06;6.93;;;0.90;;
53801;SDS011;39709;53.334;6.534;2022-09-20T14:18:33;5.88;;;0.75;;
53801;SDS011;39709;53.334;6.534;2022-09-20T14:20:59;7.20;;;0.77;;
53801;SDS011;39709;53.334;6.534;2022-09-20T14:23:27;6.07;;;0.60;;
53801;SDS011;39709;53.334;6.534;2022-09-20T14:28:43;8.73;;;0.63;;
53801;SDS011;39709;53.334;6.534;2022-09-20T14:33:56;5.43;;;0.50;;
53801;SDS011;39709;53.334;6.534;2022-09-20T14:36:25;4.82;;;0.60;;
53801;SDS011;39709;53.334;6.534;2022-09-20T14:38:53;6.80;;;0.70;;
53801;SDS011;39709;53.334;6.534;2022-09-20T14:41:24;5.70;;;0.77;;
53801;SDS011;39709;53.334;6.534;2022-09-20T14:43:56;5.13;;;0.55;;
53801;SDS011;39709;53.334;6.534;2022-09-20T14:46:27;5.45;;;0.40;;
53801;SDS011;39709;53.334;6.534;2022-09-20T14:51:45;8.32;;;0.40;;
53801;SDS011;39709;53.334;6.534;2022-09-20T14:56:41;4.25;;;0.40;;
53801;SDS011;39709;53.334;6.534;2022-09-20T15:01:39;4.40;;;0.40;;
53801;SDS011;39709;53.334;6.534;2022-09-20T15:04:16;5.93;;;0.60;;
53801;SDS011;39709;53.334;6.534;2022-09-20T15:06:46;4.32;;;0.40;;
53801;SDS011;39709;53.334;6.534;2022-09-20T15:09:12;5.10;;;0.70;;
53801;SDS011;39709;53.334;6.534;2022-09-20T15:11:38;5.03;;;0.43;;
53801;SDS011;39709;53.334;6.534;2022-09-20T15:14:05;4.05;;;0.50;;
53801;SDS011;39709;53.334;6.534;2022-09-20T15:16:31;4.30;;;0.35;;
53801;SDS011;39709;53.334;6.534;2022-09-20T15:18:57;5.00;;;0.60;;
53801;SDS011;39709;53.334;6.534;2022-09-20T15:21:23;5.87;;;0.53;;
53801;SDS011;39709;53.334;6.534;2022-09-20T15:23:49;5.30;;;0.63;;
53801;SDS011;39709;53.334;6.534;2022-09-20T15:26:16;6.35;;;0.70;;
53801;SDS011;39709;53.334;6.534;2022-09-20T15:28:46;8.60;;;0.85;;
53801;SDS011;39709;53.334;6.534;2022-09-20T15:31:12;5.55;;;0.73;;
53801;SDS011;39709;53.334;6.534;2022-09-20T15:33:39;6.67;;;0.53;;
53801;SDS011;39709;53.334;6.534;2022-09-20T15:36:05;5.97;;;0.75;;
53801;SDS011;39709;53.334;6.534;2022-09-20T15:38:32;9.23;;;1.00;;
53801;SDS011;39709;53.334;6.534;2022-09-20T15:41:02;8.32;;;0.90;;
53801;SDS011;39709;53.334;6.534;2022-09-20T15:43:29;8.82;;;0.90;;
53801;SDS011;39709;53.334;6.534;2022-09-20T15:45:56;5.37;;;0.50;;
53801;SDS011;39709;53.334;6.534;2022-09-20T15:48:25;4.22;;;0.40;;
53801;SDS011;39709;53.334;6.534;2022-09-20T15:50:57;8.38;;;0.90;;
53801;SDS011;39709;53.334;6.534;2022-09-20T15:53:34;9.50;;;0.90;;
53801;SDS011;39709;53.334;6.534;2022-09-20T15:56:15;9.38;;;0.90;;
53801;SDS011;39709;53.334;6.534;2022-09-20T15:59:25;9.37;;;1.10;;
53801;SDS011;39709;53.334;6.534;2022-09-20T16:01:34;9.05;;;0.98;;
53801;SDS011;39709;53.334;6.534;2022-09-20T16:06:34;6.18;;;0.80;;
53801;SDS011;39709;53.334;6.534;2022-09-20T16:09:01;9.27;;;0.90;;
53801;SDS011;39709;53.334;6.534;2022-09-20T16:11:27;8.07;;;0.70;;
53801;SDS011;39709;53.334;6.534;2022-09-20T16:13:53;7.72;;;1.00;;
53801;SDS011;39709;53.334;6.534;2022-09-20T16:16:20;6.93;;;0.80;;
53801;SDS011;39709;53.334;6.534;2022-09-20T16:18:47;6.88;;;0.80;;
53801;SDS011;39709;53.334;6.534;2022-09-20T16:21:31;10.23;;;1.07;;
53801;SDS011;39709;53.334;6.534;2022-09-20T16:23:57;6.28;;;0.50;;
53801;SDS011;39709;53.334;6.534;2022-09-20T16:26:24;7.30;;;0.75;;
53801;SDS011;39709;53.334;6.534;2022-09-20T16:28:51;7.23;;;0.83;;
53801;SDS011;39709;53.334;6.534;2022-09-20T16:31:39;8.65;;;0.60;;
53801;SDS011;39709;53.334;6.534;2022-09-20T16:36:47;11.60;;;0.70;;
53801;SDS011;39709;53.334;6.534;2022-09-20T16:39:14;8.05;;;0.70;;
53801;SDS011;39709;53.334;6.534;2022-09-20T16:41:41;8.43;;;0.90;;
53801;SDS011;39709;53.334;6.534;2022-09-20T16:44:09;9.63;;;0.90;;
53801;SDS011;39709;53.334;6.534;2022-09-20T16:46:35;10.18;;;0.88;;
53801;SDS011;39709;53.334;6.534;2022-09-20T16:49:05;8.77;;;0.98;;
53801;SDS011;39709;53.334;6.534;2022-09-20T16:51:34;9.95;;;0.90;;
53801;SDS011;39709;53.334;6.534;2022-09-20T16:54:01;10.97;;;1.40;;
53801;SDS011;39709;53.334;6.534;2022-09-20T16:56:32;8.35;;;0.60;;
53801;SDS011;39709;53.334;6.534;2022-09-20T16:59:03;8.35;;;0.82;;
53801;SDS011;39709;53.334;6.534;2022-09-20T17:01:29;7.93;;;0.80;;
53801;SDS011;39709;53.334;6.534;2022-09-20T17:03:56;9.30;;;1.08;;
53801;SDS011;39709;53.334;6.534;2022-09-20T17:06:22;5.77;;;0.70;;
53801;SDS011;39709;53.334;6.534;2022-09-20T17:08:52;9.75;;;0.93;;
53801;SDS011;39709;53.334;6.534;2022-09-20T17:11:20;8.80;;;0.80;;
53801;SDS011;39709;53.334;6.534;2022-09-20T17:13:48;6.28;;;0.70;;
53801;SDS011;39709;53.334;6.534;2022-09-20T17:16:16;7.43;;;0.77;;
53801;SDS011;39709;53.334;6.534;2022-09-20T17:18:44;10.70;;;1.03;;
53801;SDS011;39709;53.334;6.534;2022-09-20T17:23:38;5.68;;;0.82;;
53801;SDS011;39709;53.334;6.534;2022-09-20T17:26:06;6.78;;;1.05;;
53801;SDS011;39709;53.334;6.534;2022-09-20T17:28:36;8.65;;;1.10;;
53801;SDS011;39709;53.334;6.534;2022-09-20T17:31:03;6.53;;;0.90;;
53801;SDS011;39709;53.334;6.534;2022-09-20T17:33:33;8.55;;;1.10;;
53801;SDS011;39709;53.334;6.534;2022-09-20T17:36:00;12.45;;;1.63;;
53801;SDS011;39709;53.334;6.534;2022-09-20T17:38:28;9.48;;;2.05;;
53801;SDS011;39709;53.334;6.534;2022-09-20T17:43:36;9.33;;;1.40;;
53801;SDS011;39709;53.334;6.534;2022-09-20T17:46:12;8.18;;;1.00;;
53801;SDS011;39709;53.334;6.534;2022-09-20T17:48:40;10.93;;;2.40;;
53801;SDS011;39709;53.334;6.534;2022-09-20T17:51:08;10.43;;;1.50;;
53801;SDS011;39709;53.334;6.534;2022-09-20T17:53:35;10.65;;;1.98;;
53801;SDS011;39709;53.334;6.534;2022-09-20T17:56:01;13.20;;;4.20;;
53801;SDS011;39709;53.334;6.534;2022-09-20T17:58:28;15.45;;;4.15;;
53801;SDS011;39709;53.334;6.534;2022-09-20T18:01:00;13.38;;;3.65;;
53801;SDS011;39709;53.334;6.534;2022-09-20T18:03:26;9.50;;;2.00;;
53801;SDS011;39709;53.334;6.534;2022-09-20T18:05:52;6.80;;;1.17;;
53801;SDS011;39709;53.334;6.534;2022-09-20T18:08:18;6.95;;;0.80;;
53801;SDS011;39709;53.334;6.534;2022-09-20T18:10:53;10.50;;;1.13;;
53801;SDS011;39709;53.334;6.534;2022-09-20T18:13:20;8.75;;;0.93;;
53801;SDS011;39709;53.334;6.534;2022-09-20T18:15:46;9.60;;;1.17;;
53801;SDS011;39709;53.334;6.534;2022-09-20T18:18:12;10.00;;;1.37;;
53801;SDS011;39709;53.334;6.534;2022-09-20T18:20:38;8.45;;;1.02;;
53801;SDS011;39709;53.334;6.534;2022-09-20T18:23:03;10.13;;;1.47;;
53801;SDS011;39709;53.334;6.534;2022-09-20T18:25:29;9.98;;;0.95;;
53801;SDS011;39709;53.334;6.534;2022-09-20T18:28:15;12.23;;;1.13;;
53801;SDS011;39709;53.334;6.534;2022-09-20T18:30:42;13.10;;;1.42;;
53801;SDS011;39709;53.334;6.534;2022-09-20T18:33:10;9.23;;;0.90;;
53801;SDS011;39709;53.334;6.534;2022-09-20T18:35:36;10.10;;;0.90;;
53801;SDS011;39709;53.334;6.534;2022-09-20T18:38:06;8.55;;;1.13;;
53801;SDS011;39709;53.334;6.534;2022-09-20T18:40:32;9.00;;;1.00;;
53801;SDS011;39709;53.334;6.534;2022-09-20T18:43:00;7.45;;;0.77;;
53801;SDS011;39709;53.334;6.534;2022-09-20T18:45:26;14.25;;;1.55;;
53801;SDS011;39709;53.334;6.534;2022-09-20T18:47:52;8.30;;;0.93;;
53801;SDS011;39709;53.334;6.534;2022-09-20T18:50:22;6.50;;;0.88;;
53801;SDS011;39709;53.334;6.534;2022-09-20T18:52:51;9.43;;;0.93;;
53801;SDS011;39709;53.334;6.534;2022-09-20T18:55:17;6.97;;;1.13;;
53801;SDS011;39709;53.334;6.534;2022-09-20T18:57:43;6.80;;;1.03;;
53801;SDS011;39709;53.334;6.534;2022-09-20T19:00:12;7.57;;;0.90;;
53801;SDS011;39709;53.334;6.534;2022-09-20T19:10:51;10.80;;;0.90;;
53801;SDS011;39709;53.334;6.534;2022-09-20T19:26:41;9.73;;;2.40;;
53801;SDS011;39709;53.334;6.534;2022-09-20T19:29:10;10.43;;;2.70;;
53801;SDS011;39709;53.334;6.534;2022-09-20T19:31:48;12.10;;;3.30;;
53801;SDS011;39709;53.334;6.534;2022-09-20T19:34:20;9.15;;;2.63;;
53801;SDS011;39709;53.334;6.534;2022-09-20T19:42:31;11.57;;;3.50;;
53801;SDS011;39709;53.334;6.534;2022-09-20T19:51:29;25.30;;;11.43;;
53801;SDS011;39709;53.334;6.534;2022-09-20T19:53:59;26.88;;;13.35;;
53801;SDS011;39709;53.334;6.534;2022-09-20T19:56:25;26.27;;;12.48;;
53801;SDS011;39709;53.334;6.534;2022-09-20T19:58:53;21.05;;;10.05;;
53801;SDS011;39709;53.334;6.534;2022-09-20T20:01:23;20.43;;;10.10;;
53801;SDS011;39709;53.334;6.534;2022-09-20T20:03:53;17.30;;;9.70;;
53801;SDS011;39709;53.334;6.534;2022-09-20T20:06:22;20.60;;;9.55;;
53801;SDS011;39709;53.334;6.534;2022-09-20T20:09:10;16.17;;;8.00;;
53801;SDS011;39709;53.334;6.534;2022-09-20T20:14:29;20.37;;;9.80;;
53801;SDS011;39709;53.334;6.534;2022-09-20T20:25:29;18.38;;;8.57;;
53801;SDS011;39709;53.334;6.534;2022-09-20T20:28:15;18.77;;;10.40;;
53801;SDS011;39709;53.334;6.534;2022-09-20T20:30:41;17.63;;;11.25;;
53801;SDS011;39709;53.334;6.534;2022-09-20T20:33:06;21.37;;;12.87;;
53801;SDS011;39709;53.334;6.534;2022-09-20T20:35:37;17.48;;;11.23;;
53801;SDS011;39709;53.334;6.534;2022-09-20T20:38:03;18.60;;;10.00;;
53801;SDS011;39709;53.334;6.534;2022-09-20T20:40:35;16.40;;;9.10;;
53801;SDS011;39709;53.334;6.534;2022-09-20T20:43:01;13.03;;;7.87;;
53801;SDS011;39709;53.334;6.534;2022-09-20T20:45:28;12.52;;;6.10;;
53801;SDS011;39709;53.334;6.534;2022-09-20T20:47:57;13.60;;;5.50;;
53801;SDS011;39709;53.334;6.534;2022-09-20T20:50:26;12.25;;;5.45;;
53801;SDS011;39709;53.334;6.534;2022-09-20T20:52:53;13.50;;;4.37;;
53801;SDS011;39709;53.334;6.534;2022-09-20T20:55:20;13.00;;;3.67;;
53801;SDS011;39709;53.334;6.534;2022-09-20T20:57:50;11.63;;;4.28;;
53801;SDS011;39709;53.334;6.534;2022-09-20T21:00:22;12.77;;;4.00;;
53801;SDS011;39709;53.334;6.534;2022-09-20T21:02:54;11.65;;;3.88;;
53801;SDS011;39709;53.334;6.534;2022-09-20T21:05:24;13.20;;;3.97;;
53801;SDS011;39709;53.334;6.534;2022-09-20T21:07:50;12.55;;;4.55;;
53801;SDS011;39709;53.334;6.534;2022-09-20T21:10:17;10.18;;;3.70;;
53801;SDS011;39709;53.334;6.534;2022-09-20T21:12:43;16.15;;;3.60;;
53801;SDS011;39709;53.334;6.534;2022-09-20T21:15:09;10.18;;;3.17;;
53801;SDS011;39709;53.334;6.534;2022-09-20T21:17:35;11.20;;;3.47;;
53801;SDS011;39709;53.334;6.534;2022-09-20T21:20:01;9.85;;;3.08;;
53801;SDS011;39709;53.334;6.534;2022-09-20T21:22:28;10.70;;;3.15;;
53801;SDS011;39709;53.334;6.534;2022-09-20T21:24:53;12.17;;;3.10;;
53801;SDS011;39709;53.334;6.534;2022-09-20T21:27:19;9.23;;;2.65;;
53801;SDS011;39709;53.334;6.534;2022-09-20T21:29:45;15.33;;;3.10;;
53801;SDS011;39709;53.334;6.534;2022-09-20T21:32:10;14.13;;;3.30;;
53801;SDS011;39709;53.334;6.534;2022-09-20T21:34:38;10.45;;;2.92;;
53801;SDS011;39709;53.334;6.534;2022-09-20T21:37:03;9.13;;;2.83;;
53801;SDS011;39709;53.334;6.534;2022-09-20T21:39:29;12.60;;;3.13;;
53801;SDS011;39709;53.334;6.534;2022-09-20T21:41:55;10.05;;;2.80;;
53801;SDS011;39709;53.334;6.534;2022-09-20T21:44:21;10.65;;;3.40;;
53801;SDS011;39709;53.334;6.534;2022-09-20T21:46:47;15.00;;;3.47;;
53801;SDS011;39709;53.334;6.534;2022-09-20T21:49:12;12.05;;;3.00;;
53801;SDS011;39709;53.334;6.534;2022-09-20T21:51:38;11.60;;;3.20;;